createdAt,value
2022-08-26T00:01:54.554Z,18.50
2022-08-26T00:04:23.818Z,18.50
2022-08-26T00:06:51.397Z,18.40
2022-08-26T00:09:19.146Z,18.40
2022-08-26T00:11:46.603Z,18.30
2022-08-26T00:14:15.269Z,18.30
2022-08-26T00:16:47.682Z,18.30
2022-08-26T00:19:20.695Z,18.30
2022-08-26T00:21:49.628Z,18.20
2022-08-26T00:24:19.252Z,18.20
2022-08-26T00:26:46.711Z,18.20
2022-08-26T00:29:14.868Z,18.20
2022-08-26T00:31:42.333Z,18.10
2022-08-26T00:34:11.315Z,18.10
2022-08-26T00:36:40.621Z,18.00
2022-08-26T00:39:08.348Z,18.00
2022-08-26T00:41:38.059Z,17.90
2022-08-26T00:44:05.669Z,17.90
2022-08-26T00:46:36.830Z,17.90
2022-08-26T00:49:16.713Z,17.90
2022-08-26T00:51:55.554Z,17.90
2022-08-26T00:54:27.089Z,17.80
2022-08-26T00:57:05.818Z,17.80
2022-08-26T00:59:45.361Z,17.80
2022-08-26T01:02:19.890Z,17.70
2022-08-26T01:04:55.705Z,17.70
2022-08-26T01:07:26.190Z,17.60
2022-08-26T01:09:55.037Z,17.60
2022-08-26T01:12:24.830Z,17.50
2022-08-26T01:14:52.476Z,17.50
2022-08-26T01:17:19.635Z,17.50
2022-08-26T01:19:52.323Z,17.40
2022-08-26T01:22:37.574Z,17.40
2022-08-26T01:25:05.582Z,17.40
2022-08-26T01:27:35.442Z,17.40
2022-08-26T01:30:04.173Z,17.40
2022-08-26T01:32:33.149Z,17.40
2022-08-26T01:35:01.336Z,17.40
2022-08-26T01:37:34.897Z,17.40
2022-08-26T01:40:04.875Z,17.40
2022-08-26T01:42:32.001Z,17.30
2022-08-26T01:45:05.340Z,17.30
2022-08-26T01:47:35.655Z,17.30
2022-08-26T01:50:08.616Z,17.30
2022-08-26T01:52:41.380Z,17.30
2022-08-26T01:55:12.277Z,17.20
2022-08-26T01:57:40.449Z,17.10
2022-08-26T02:00:16.279Z,17.10
2022-08-26T02:02:50.609Z,17.10
2022-08-26T02:05:24.429Z,17.10
2022-08-26T02:07:51.915Z,17.00
2022-08-26T02:10:19.736Z,17.00
2022-08-26T02:12:48.084Z,17.00
2022-08-26T02:15:15.683Z,16.90
2022-08-26T02:17:47.249Z,16.90
2022-08-26T02:20:18.764Z,16.80
2022-08-26T02:22:47.449Z,16.80
2022-08-26T02:25:18.424Z,16.80
2022-08-26T02:27:47.596Z,16.70
2022-08-26T02:30:28.133Z,16.70
2022-08-26T02:32:55.663Z,16.70
2022-08-26T02:35:24.074Z,16.60
2022-08-26T02:37:53.023Z,16.60
2022-08-26T02:40:23.909Z,16.60
2022-08-26T02:42:53.081Z,16.60
2022-08-26T02:45:23.804Z,16.50
2022-08-26T02:47:52.241Z,16.50
2022-08-26T02:50:20.492Z,16.50
2022-08-26T02:52:48.532Z,16.50
2022-08-26T02:55:16.351Z,16.50
2022-08-26T02:57:43.862Z,16.50
2022-08-26T03:00:14.605Z,16.40
2022-08-26T03:02:41.782Z,16.40
2022-08-26T03:05:09.733Z,16.40
2022-08-26T03:07:36.933Z,16.40
2022-08-26T03:10:08.317Z,16.30
2022-08-26T03:12:36.280Z,16.30
2022-08-26T03:15:16.557Z,16.30
2022-08-26T03:17:47.047Z,16.30
2022-08-26T03:20:15.461Z,16.40
2022-08-26T03:22:42.921Z,16.30
2022-08-26T03:25:12.279Z,16.30
2022-08-26T03:27:39.466Z,16.30
2022-08-26T03:30:25.955Z,16.30
2022-08-26T03:32:53.824Z,16.20
2022-08-26T03:35:21.852Z,16.20
2022-08-26T03:37:49.611Z,16.20
2022-08-26T03:40:20.340Z,16.10
2022-08-26T03:42:47.816Z,16.10
2022-08-26T03:45:17.280Z,16.10
2022-08-26T03:47:45.169Z,16.10
2022-08-26T03:50:15.308Z,16.10
2022-08-26T03:52:44.141Z,16.10
2022-08-26T03:55:11.524Z,16.00
2022-08-26T03:57:38.631Z,16.00
2022-08-26T04:00:14.966Z,16.00
2022-08-26T04:02:48.841Z,16.00
2022-08-26T04:05:18.397Z,16.00
2022-08-26T04:07:46.448Z,16.00
2022-08-26T04:10:20.370Z,16.00
2022-08-26T04:12:47.680Z,16.00
2022-08-26T04:15:16.508Z,16.10
2022-08-26T04:17:45.287Z,16.10
2022-08-26T04:20:16.180Z,16.20
2022-08-26T04:22:45.370Z,16.20
2022-08-26T04:25:13.071Z,16.20
2022-08-26T04:27:40.265Z,16.30
2022-08-26T04:30:09.059Z,16.30
2022-08-26T04:32:37.655Z,16.30
2022-08-26T04:35:05.645Z,16.40
2022-08-26T04:37:33.617Z,16.50
2022-08-26T04:40:01.313Z,16.60
2022-08-26T04:42:29.903Z,16.70
2022-08-26T04:44:56.840Z,16.70
2022-08-26T04:47:28.061Z,16.80
2022-08-26T04:49:58.947Z,16.80
2022-08-26T04:52:26.576Z,16.90
2022-08-26T04:54:55.188Z,17.00
2022-08-26T04:57:23.370Z,17.10
2022-08-26T04:59:50.844Z,17.20
2022-08-26T05:02:18.163Z,17.20
2022-08-26T05:04:45.441Z,17.30
2022-08-26T05:07:12.907Z,17.40
2022-08-26T05:09:40.793Z,17.40
2022-08-26T05:12:08.029Z,17.50
2022-08-26T05:14:36.487Z,17.60
2022-08-26T05:17:03.950Z,17.80
2022-08-26T05:19:31.949Z,17.80
2022-08-26T05:22:00.076Z,18.00
2022-08-26T05:24:27.365Z,18.00
2022-08-26T05:26:54.433Z,18.20
2022-08-26T05:29:24.227Z,18.30
2022-08-26T05:31:53.405Z,18.40
2022-08-26T05:34:23.362Z,18.50
2022-08-26T05:36:53.224Z,18.60
2022-08-26T05:39:23.559Z,18.80
2022-08-26T05:41:50.954Z,19.00
2022-08-26T05:44:20.294Z,19.20
2022-08-26T05:46:49.597Z,19.50
2022-08-26T05:49:18.678Z,19.80
2022-08-26T05:51:47.905Z,20.20
2022-08-26T05:54:21.680Z,20.70
2022-08-26T05:56:51.968Z,21.10
2022-08-26T05:59:24.255Z,21.70
2022-08-26T06:01:53.153Z,22.30
2022-08-26T06:04:20.231Z,22.70
2022-08-26T06:06:47.611Z,23.20
2022-08-26T06:09:17.450Z,23.60
2022-08-26T06:11:45.463Z,24.00
2022-08-26T06:14:12.475Z,24.40
2022-08-26T06:16:41.486Z,24.90
2022-08-26T06:19:10.777Z,25.40
2022-08-26T06:21:40.529Z,25.70
2022-08-26T06:24:31.547Z,26.00
2022-08-26T06:27:01.928Z,26.40
2022-08-26T06:29:33.778Z,26.90
2022-08-26T06:32:01.544Z,27.10
2022-08-26T06:34:30.513Z,27.40
2022-08-26T06:37:02.364Z,27.60
2022-08-26T06:39:30.904Z,27.80
2022-08-26T06:41:59.732Z,28.20
2022-08-26T06:44:27.349Z,28.60
2022-08-26T06:46:54.693Z,28.80
2022-08-26T06:49:26.968Z,28.90
2022-08-26T06:51:58.831Z,29.10
2022-08-26T06:54:28.835Z,29.30
2022-08-26T06:56:57.274Z,29.60
2022-08-26T06:59:25.313Z,29.90
2022-08-26T07:01:53.403Z,30.30
2022-08-26T07:04:23.205Z,30.50
2022-08-26T07:06:52.426Z,30.80
2022-08-26T07:09:21.858Z,31.10
2022-08-26T07:11:51.647Z,31.60
2022-08-26T07:14:21.431Z,31.80
2022-08-26T07:16:50.203Z,32.20
2022-08-26T07:19:29.845Z,32.70
2022-08-26T07:21:59.625Z,32.70
2022-08-26T07:24:29.096Z,33.00
2022-08-26T07:27:03.358Z,33.20
2022-08-26T07:29:48.657Z,33.40
2022-08-26T07:32:23.121Z,33.80
2022-08-26T07:34:50.743Z,34.00
2022-08-26T07:37:17.746Z,34.40
2022-08-26T07:39:45.207Z,34.70
2022-08-26T07:42:14.842Z,35.10
2022-08-26T07:44:42.613Z,35.60
2022-08-26T07:47:25.621Z,36.20
2022-08-26T07:49:57.431Z,36.30
2022-08-26T07:52:27.225Z,36.20
2022-08-26T07:54:58.282Z,36.00
2022-08-26T07:57:26.860Z,36.20
2022-08-26T07:59:55.227Z,36.40
2022-08-26T08:02:23.933Z,36.60
2022-08-26T08:04:51.843Z,36.90
2022-08-26T08:07:19.136Z,36.60
2022-08-26T08:09:49.543Z,36.50
2022-08-26T08:12:17.713Z,36.50
2022-08-26T08:14:46.838Z,36.60
2022-08-26T08:17:16.594Z,36.70
2022-08-26T08:19:43.724Z,36.60
2022-08-26T08:22:17.226Z,36.40
2022-08-26T08:24:53.035Z,36.70
2022-08-26T08:27:25.834Z,37.00
2022-08-26T08:30:09.413Z,37.40
2022-08-26T08:32:44.392Z,38.10
2022-08-26T08:35:14.615Z,38.30
2022-08-26T08:37:43.826Z,38.90
2022-08-26T08:40:15.429Z,39.50
2022-08-26T08:42:58.746Z,39.90
2022-08-26T08:45:36.307Z,40.00
2022-08-26T08:48:30.903Z,40.40
2022-08-26T08:51:14.496Z,40.70
2022-08-26T08:53:45.334Z,40.60
2022-08-26T08:56:39.006Z,40.30
2022-08-26T08:59:24.128Z,40.90
2022-08-26T09:01:58.702Z,41.70
2022-08-26T09:05:05.462Z,41.80
2022-08-26T09:07:39.801Z,41.00
2022-08-26T09:10:12.811Z,40.50
2022-08-26T09:12:39.729Z,40.60
2022-08-26T09:15:31.882Z,40.50
2022-08-26T09:18:30.418Z,41.10
2022-08-26T09:21:10.368Z,41.60
2022-08-26T09:23:41.872Z,42.90
2022-08-26T09:26:39.421Z,43.70
2022-08-26T09:29:28.667Z,44.30
2022-08-26T09:32:19.620Z,43.90
2022-08-26T09:34:56.782Z,43.60
2022-08-26T09:37:53.522Z,43.70
2022-08-26T09:40:27.469Z,42.90
2022-08-26T09:43:22.024Z,42.70
2022-08-26T09:45:59.455Z,42.90
2022-08-26T09:48:35.481Z,43.20
2022-08-26T09:51:23.277Z,43.40
2022-08-26T09:53:56.818Z,43.40
2022-08-26T09:56:29.637Z,42.50
2022-08-26T09:58:57.932Z,40.30
2022-08-26T10:01:42.100Z,37.70
2022-08-26T10:04:14.648Z,35.20
2022-08-26T10:06:56.909Z,33.50
2022-08-26T10:09:25.822Z,32.30
2022-08-26T10:11:58.844Z,31.30
2022-08-26T10:14:33.890Z,30.80
2022-08-26T10:17:12.433Z,30.50
2022-08-26T10:19:56.710Z,30.30
2022-08-26T10:22:52.179Z,30.20
2022-08-26T10:25:26.327Z,30.10
2022-08-26T10:28:03.398Z,30.10
2022-08-26T10:30:37.263Z,30.10
2022-08-26T10:33:12.406Z,30.10
2022-08-26T10:35:50.199Z,30.10
2022-08-26T10:38:23.870Z,30.10
2022-08-26T10:41:09.980Z,30.10
2022-08-26T10:43:58.887Z,30.00
2022-08-26T10:46:33.440Z,29.90
2022-08-26T10:49:06.853Z,29.80
2022-08-26T10:51:42.282Z,29.70
2022-08-26T10:54:23.978Z,29.70
2022-08-26T10:56:59.819Z,29.80
2022-08-26T11:00:22.985Z,29.80
2022-08-26T11:03:03.203Z,29.70
2022-08-26T11:05:30.631Z,29.80
2022-08-26T11:08:19.427Z,29.50
2022-08-26T11:10:59.138Z,29.40
2022-08-26T11:13:57.564Z,29.20
2022-08-26T11:16:42.855Z,29.20
2022-08-26T11:19:50.824Z,29.00
2022-08-26T11:22:38.187Z,28.90
2022-08-26T11:25:29.905Z,28.90
2022-08-26T11:27:59.867Z,29.00
2022-08-26T11:30:38.823Z,29.10
2022-08-26T11:33:08.212Z,29.10
2022-08-26T11:35:37.611Z,29.10
2022-08-26T11:38:27.982Z,29.10
2022-08-26T11:41:06.228Z,29.10
2022-08-26T11:43:34.508Z,29.20
2022-08-26T11:46:03.943Z,29.20
2022-08-26T11:48:34.947Z,29.10
2022-08-26T11:51:23.593Z,29.10
2022-08-26T11:53:51.163Z,29.10
2022-08-26T11:56:31.512Z,29.00
2022-08-26T11:59:02.179Z,29.00
2022-08-26T12:01:38.135Z,29.00
2022-08-26T12:04:17.475Z,29.10
2022-08-26T12:06:51.002Z,29.00
2022-08-26T12:09:24.806Z,29.10
2022-08-26T12:11:58.069Z,29.10
2022-08-26T12:14:27.666Z,29.20
2022-08-26T12:16:55.193Z,29.20
2022-08-26T12:19:27.981Z,29.20
2022-08-26T12:22:24.214Z,29.10
2022-08-26T12:24:54.269Z,29.10
2022-08-26T12:27:22.759Z,29.20
2022-08-26T12:30:20.356Z,29.20
2022-08-26T12:33:22.336Z,29.30
2022-08-26T12:35:54.786Z,29.30
2022-08-26T12:38:25.328Z,29.40
2022-08-26T12:40:54.060Z,29.40
2022-08-26T12:43:44.785Z,29.30
2022-08-26T12:46:16.669Z,29.40
2022-08-26T12:48:48.768Z,29.30
2022-08-26T12:51:19.719Z,29.30
2022-08-26T12:53:46.988Z,29.20
2022-08-26T12:56:36.515Z,29.20
2022-08-26T12:59:11.166Z,29.30
2022-08-26T13:01:44.562Z,29.30
2022-08-26T13:04:36.157Z,29.30
2022-08-26T13:07:32.638Z,29.20
2022-08-26T13:10:00.982Z,29.10
2022-08-26T13:12:33.818Z,29.10
2022-08-26T13:15:05.965Z,29.10
2022-08-26T13:17:35.844Z,29.10
2022-08-26T13:20:04.549Z,29.10
2022-08-26T13:22:32.173Z,29.20
2022-08-26T13:24:59.603Z,29.20
2022-08-26T13:27:27.623Z,29.10
2022-08-26T13:29:57.671Z,29.10
2022-08-26T13:32:27.508Z,29.20
2022-08-26T13:34:57.644Z,29.10
2022-08-26T13:37:34.671Z,29.20
2022-08-26T13:40:06.070Z,29.20
2022-08-26T13:42:34.482Z,29.10
2022-08-26T13:45:02.636Z,29.10
2022-08-26T13:47:30.097Z,29.00
2022-08-26T13:49:57.102Z,28.90
2022-08-26T13:52:29.170Z,28.80
2022-08-26T13:55:00.350Z,28.70
2022-08-26T13:57:28.608Z,28.60
2022-08-26T13:59:57.184Z,28.50
2022-08-26T14:02:25.344Z,28.40
2022-08-26T14:04:53.771Z,28.40
2022-08-26T14:07:20.968Z,28.40
2022-08-26T14:09:48.181Z,28.50
2022-08-26T14:12:15.173Z,28.50
2022-08-26T14:14:42.522Z,28.50
2022-08-26T14:17:10.254Z,28.60
2022-08-26T14:19:37.831Z,28.60
2022-08-26T14:22:05.188Z,28.60
2022-08-26T14:24:32.423Z,28.60
2022-08-26T14:26:59.512Z,28.60
2022-08-26T14:29:26.765Z,28.60
2022-08-26T14:31:55.999Z,28.60
2022-08-26T14:34:23.550Z,28.80
2022-08-26T14:36:50.502Z,29.90
2022-08-26T14:39:17.906Z,31.40
2022-08-26T14:41:54.393Z,32.60
2022-08-26T14:44:27.263Z,33.40
2022-08-26T14:46:54.774Z,33.80
2022-08-26T14:49:23.979Z,33.90
2022-08-26T14:51:51.486Z,33.90
2022-08-26T14:54:19.055Z,33.50
2022-08-26T14:56:48.584Z,32.80
2022-08-26T14:59:21.953Z,32.10
2022-08-26T15:01:49.398Z,31.50
2022-08-26T15:04:17.596Z,30.60
2022-08-26T15:06:44.561Z,30.00
2022-08-26T15:09:12.504Z,29.60
2022-08-26T15:11:40.089Z,29.20
2022-08-26T15:14:07.192Z,28.90
2022-08-26T15:16:34.673Z,28.70
2022-08-26T15:19:04.767Z,28.60
2022-08-26T15:21:33.220Z,28.40
2022-08-26T15:24:01.221Z,28.40
2022-08-26T15:26:33.771Z,28.20
2022-08-26T15:29:04.812Z,28.10
2022-08-26T15:31:33.633Z,28.10
2022-08-26T15:34:07.236Z,28.00
2022-08-26T15:36:37.752Z,28.00
2022-08-26T15:39:07.133Z,27.90
2022-08-26T15:41:34.989Z,27.80
2022-08-26T15:44:03.855Z,27.70
2022-08-26T15:46:31.788Z,27.70
2022-08-26T15:48:58.921Z,27.70
2022-08-26T15:51:33.665Z,27.60
2022-08-26T15:54:03.114Z,27.60
2022-08-26T15:56:34.719Z,27.50
2022-08-26T15:59:03.240Z,27.40
2022-08-26T16:01:32.135Z,27.40
2022-08-26T16:04:00.113Z,27.40
2022-08-26T16:06:31.485Z,27.40
2022-08-26T16:08:59.143Z,27.30
2022-08-26T16:11:28.081Z,27.20
2022-08-26T16:13:55.592Z,27.20
2022-08-26T16:16:23.189Z,27.20
2022-08-26T16:18:50.860Z,27.10
2022-08-26T16:21:20.804Z,27.00
2022-08-26T16:23:48.076Z,27.00
2022-08-26T16:26:22.649Z,27.00
2022-08-26T16:28:49.760Z,26.90
2022-08-26T16:31:17.381Z,26.70
2022-08-26T16:33:44.790Z,26.70
2022-08-26T16:36:12.581Z,26.70
2022-08-26T16:38:40.951Z,26.60
2022-08-26T16:41:08.910Z,26.50
2022-08-26T16:43:36.283Z,26.40
2022-08-26T16:46:07.362Z,26.30
2022-08-26T16:48:34.758Z,26.20
2022-08-26T16:51:01.764Z,26.20
2022-08-26T16:53:29.282Z,26.10
2022-08-26T16:55:56.297Z,26.00
2022-08-26T16:58:23.444Z,25.80
2022-08-26T17:00:50.451Z,25.80
2022-08-26T17:03:17.699Z,25.70
2022-08-26T17:05:44.876Z,25.60
2022-08-26T17:08:14.544Z,25.40
2022-08-26T17:10:54.718Z,25.30
2022-08-26T17:13:34.877Z,25.20
2022-08-26T17:16:07.557Z,25.10
2022-08-26T17:18:35.885Z,25.00
2022-08-26T17:21:05.712Z,25.00
2022-08-26T17:23:33.809Z,24.80
2022-08-26T17:26:01.185Z,24.70
2022-08-26T17:28:28.998Z,24.60
2022-08-26T17:30:57.962Z,24.40
2022-08-26T17:33:25.853Z,24.30
2022-08-26T17:35:53.783Z,24.10
2022-08-26T17:38:21.495Z,24.00
2022-08-26T17:40:49.744Z,23.90
2022-08-26T17:43:17.500Z,23.70
2022-08-26T17:45:45.026Z,23.70
2022-08-26T17:48:12.371Z,23.60
2022-08-26T17:50:41.420Z,23.50
2022-08-26T17:53:12.595Z,23.40
2022-08-26T17:55:46.265Z,23.30
2022-08-26T17:58:14.534Z,23.20
2022-08-26T18:00:47.199Z,23.10
2022-08-26T18:03:14.808Z,22.90
2022-08-26T18:05:42.666Z,22.90
2022-08-26T18:08:10.135Z,22.70
2022-08-26T18:10:37.822Z,22.70
2022-08-26T18:13:04.792Z,22.50
2022-08-26T18:15:31.786Z,22.40
2022-08-26T18:17:58.956Z,22.30
2022-08-26T18:20:26.139Z,22.20
2022-08-26T18:22:54.545Z,22.20
2022-08-26T18:25:22.261Z,22.10
2022-08-26T18:27:49.330Z,22.10
2022-08-26T18:30:21.517Z,22.10
2022-08-26T18:32:50.374Z,22.00
2022-08-26T18:35:18.529Z,22.00
2022-08-26T18:37:45.584Z,21.90
2022-08-26T18:40:14.641Z,21.80
2022-08-26T18:42:41.965Z,21.80
2022-08-26T18:45:10.056Z,21.70
2022-08-26T18:47:44.097Z,21.60
2022-08-26T18:50:11.235Z,21.60
2022-08-26T18:52:38.464Z,21.50
2022-08-26T18:55:06.681Z,21.50
2022-08-26T18:57:33.575Z,21.40
2022-08-26T19:00:00.601Z,21.40
2022-08-26T19:02:28.135Z,21.30
2022-08-26T19:04:57.666Z,21.30
2022-08-26T19:07:24.827Z,21.30
2022-08-26T19:09:54.138Z,21.10
2022-08-26T19:12:21.792Z,21.10
2022-08-26T19:14:48.897Z,21.00
2022-08-26T19:17:16.869Z,21.00
2022-08-26T19:19:44.283Z,21.00
2022-08-26T19:22:12.840Z,20.90
2022-08-26T19:24:40.852Z,20.90
2022-08-26T19:27:11.727Z,20.80
2022-08-26T19:29:42.205Z,20.80
2022-08-26T19:32:10.205Z,20.70
2022-08-26T19:34:38.070Z,20.70
2022-08-26T19:37:06.111Z,20.60
2022-08-26T19:39:33.280Z,20.50
2022-08-26T19:42:00.598Z,20.50
2022-08-26T19:44:46.909Z,20.40
2022-08-26T19:47:15.535Z,20.40
2022-08-26T19:49:42.741Z,20.30
2022-08-26T19:52:11.481Z,20.30
2022-08-26T19:54:39.602Z,20.30
2022-08-26T19:57:07.269Z,20.20
2022-08-26T19:59:36.171Z,20.20
2022-08-26T20:02:08.624Z,20.10
2022-08-26T20:04:38.527Z,20.10
2022-08-26T20:07:09.552Z,20.10
2022-08-26T20:09:38.667Z,20.10
2022-08-26T20:12:07.423Z,20.10
2022-08-26T20:14:35.661Z,20.10
2022-08-26T20:17:04.217Z,20.10
2022-08-26T20:19:50.610Z,20.10
2022-08-26T20:22:19.112Z,20.00
2022-08-26T20:24:46.985Z,20.10
2022-08-26T20:27:15.674Z,20.00
2022-08-26T20:29:43.225Z,20.00
2022-08-26T20:32:12.113Z,19.90
2022-08-26T20:34:40.211Z,20.00
2022-08-26T20:37:08.511Z,20.00
2022-08-26T20:39:36.480Z,20.00
2022-08-26T20:42:05.607Z,20.00
2022-08-26T20:44:54.898Z,20.00
2022-08-26T20:47:22.620Z,19.90
2022-08-26T20:49:52.355Z,19.90
2022-08-26T20:52:19.840Z,19.90
2022-08-26T20:54:46.776Z,19.90
2022-08-26T20:57:14.704Z,19.80
2022-08-26T20:59:43.578Z,19.80
2022-08-26T21:02:10.806Z,19.80
2022-08-26T21:04:38.394Z,19.80
2022-08-26T21:07:05.466Z,19.70
2022-08-26T21:09:33.103Z,19.70
2022-08-26T21:12:00.321Z,19.70
2022-08-26T21:14:27.315Z,19.70
2022-08-26T21:16:54.343Z,19.60
2022-08-26T21:19:22.241Z,19.60
2022-08-26T21:21:49.661Z,19.60
2022-08-26T21:24:17.087Z,19.60
2022-08-26T21:26:44.814Z,19.60
2022-08-26T21:29:13.582Z,19.60
2022-08-26T21:31:45.636Z,19.60
2022-08-26T21:34:17.401Z,19.60
2022-08-26T21:36:45.939Z,19.80
2022-08-26T21:39:14.025Z,19.90
2022-08-26T21:41:42.803Z,20.00
2022-08-26T21:44:11.013Z,20.10
2022-08-26T21:46:38.081Z,20.30
2022-08-26T21:49:07.989Z,20.40
2022-08-26T21:51:38.604Z,20.50
2022-08-26T21:54:10.732Z,20.60
2022-08-26T21:56:47.310Z,20.70
2022-08-26T21:59:17.626Z,20.70
2022-08-26T22:01:45.008Z,20.80
2022-08-26T22:04:12.149Z,20.70
2022-08-26T22:06:45.553Z,20.70
2022-08-26T22:09:14.744Z,20.60
2022-08-26T22:11:41.958Z,20.40
2022-08-26T22:14:10.110Z,20.20
2022-08-26T22:16:37.719Z,20.00
2022-08-26T22:19:04.744Z,19.90
2022-08-26T22:21:32.230Z,19.70
2022-08-26T22:24:00.039Z,19.60
2022-08-26T22:26:29.643Z,19.40
2022-08-26T22:28:59.242Z,19.30
2022-08-26T22:31:37.514Z,19.20
2022-08-26T22:34:10.720Z,19.20
2022-08-26T22:36:44.013Z,19.10
2022-08-26T22:39:16.578Z,19.10
2022-08-26T22:41:45.343Z,19.00
2022-08-26T22:44:12.888Z,19.00
2022-08-26T22:46:41.149Z,18.90
2022-08-26T22:49:10.821Z,18.90
2022-08-26T22:51:37.977Z,18.80
2022-08-26T22:54:06.211Z,18.80
2022-08-26T22:56:33.989Z,18.70
2022-08-26T22:59:05.082Z,18.70
2022-08-26T23:01:35.745Z,18.70
2022-08-26T23:04:03.888Z,18.60
2022-08-26T23:06:31.023Z,18.60
2022-08-26T23:08:58.298Z,18.60
2022-08-26T23:11:25.891Z,18.50
2022-08-26T23:13:52.961Z,18.50
2022-08-26T23:16:20.194Z,18.50
2022-08-26T23:18:47.806Z,18.50
2022-08-26T23:21:15.247Z,18.40
2022-08-26T23:23:42.423Z,18.40
2022-08-26T23:26:10.047Z,18.40
2022-08-26T23:28:37.935Z,18.40
2022-08-26T23:31:05.645Z,18.30
2022-08-26T23:33:52.306Z,18.30
2022-08-26T23:36:22.799Z,18.30
2022-08-26T23:38:52.703Z,18.30
2022-08-26T23:41:22.263Z,18.30
2022-08-26T23:43:49.992Z,18.30
2022-08-26T23:46:18.581Z,18.20
2022-08-26T23:48:45.725Z,18.20
2022-08-26T23:51:31.486Z,18.20
2022-08-26T23:53:59.570Z,18.20
2022-08-26T23:56:26.926Z,18.20
2022-08-26T23:58:54.528Z,18.10
